sensor_id;sensor_type;location;lat;lon;timestamp;pressure;altitude;pressure_sealevel;temperature;humidity
68476;BME280;55464;48.266;14.188;2023-05-21T00:01:38;97713.25;;;17.08;72.30
68476;BME280;55464;48.266;14.188;2023-05-21T00:04:04;97716.41;;;17.07;72.81
68476;BME280;55464;48.266;14.188;2023-05-21T00:06:34;97721.59;;;17.05;72.78
68476;BME280;55464;48.266;14.188;2023-05-21T00:09:03;97702.06;;;16.97;73.05
68476;BME280;55464;48.266;14.188;2023-05-21T00:11:30;97696.84;;;16.92;72.75
68476;BME280;55464;48.266;14.188;2023-05-21T00:13:56;97702.03;;;16.94;73.08
68476;BME280;55464;48.266;14.188;2023-05-21T00:16:22;97706.41;;;16.95;72.94
68476;BME280;55464;48.266;14.188;2023-05-21T00:18:48;97701.22;;;16.93;73.20
68476;BME280;55464;48.266;14.188;2023-05-21T00:21:17;97692.47;;;16.95;73.09
68476;BME280;55464;48.266;14.188;2023-05-21T00:23:48;97698.84;;;16.92;73.25
68476;BME280;55464;48.266;14.188;2023-05-21T00:26:14;97688.47;;;16.85;73.30
68476;BME280;55464;48.266;14.188;2023-05-21T00:28:40;97688.88;;;16.87;73.16
68476;BME280;55464;48.266;14.188;2023-05-21T00:31:05;97686.06;;;16.84;73.52
68476;BME280;55464;48.266;14.188;2023-05-21T00:33:30;97684.81;;;16.81;73.54
68476;BME280;55464;48.266;14.188;2023-05-21T00:35:56;97679.66;;;16.79;73.64
68476;BME280;55464;48.266;14.188;2023-05-21T00:38:22;97681.22;;;16.77;73.77
68476;BME280;55464;48.266;14.188;2023-05-21T00:40:48;97676.81;;;16.72;73.83
68476;BME280;55464;48.266;14.188;2023-05-21T00:43:13;97674.03;;;16.76;73.89
68476;BME280;55464;48.266;14.188;2023-05-21T00:45:42;97676.03;;;16.75;73.75
68476;BME280;55464;48.266;14.188;2023-05-21T00:48:08;97682.78;;;16.71;73.81
68476;BME280;55464;48.266;14.188;2023-05-21T00:50:34;97676.75;;;16.65;73.66
68476;BME280;55464;48.266;14.188;2023-05-21T00:53:04;97682.72;;;16.67;73.76
68476;BME280;55464;48.266;14.188;2023-05-21T00:55:35;97689.53;;;16.70;74.02
68476;BME280;55464;48.266;14.188;2023-05-21T00:58:00;97679.94;;;16.63;73.93
68476;BME280;55464;48.266;14.188;2023-05-21T01:00:26;97687.09;;;16.64;74.08
68476;BME280;55464;48.266;14.188;2023-05-21T01:02:52;97681.13;;;16.62;74.24
68476;BME280;55464;48.266;14.188;2023-05-21T01:05:18;97670.78;;;16.59;74.10
68476;BME280;55464;48.266;14.188;2023-05-21T01:07:43;97676.34;;;16.59;74.25
68476;BME280;55464;48.266;14.188;2023-05-21T01:10:09;97661.97;;;16.50;74.47
68476;BME280;55464;48.266;14.188;2023-05-21T01:12:37;97675.50;;;16.52;74.22
68476;BME280;55464;48.266;14.188;2023-05-21T01:15:04;97662.75;;;16.47;74.40
68476;BME280;55464;48.266;14.188;2023-05-21T01:17:30;97673.09;;;16.50;74.44
68476;BME280;55464;48.266;14.188;2023-05-21T01:19:59;97669.91;;;16.48;74.58
68476;BME280;55464;48.266;14.188;2023-05-21T01:22:27;97661.53;;;16.41;74.58
68476;BME280;55464;48.266;14.188;2023-05-21T01:24:56;97679.41;;;16.43;74.81
68476;BME280;55464;48.266;14.188;2023-05-21T01:27:21;97673.44;;;16.41;74.87
68476;BME280;55464;48.266;14.188;2023-05-21T01:29:47;97671.81;;;16.37;74.93
68476;BME280;55464;48.266;14.188;2023-05-21T01:32:31;97674.19;;;16.35;75.09
68476;BME280;55464;48.266;14.188;2023-05-21T01:35:04;97669.00;;;16.33;74.91
68476;BME280;55464;48.266;14.188;2023-05-21T01:37:42;97672.16;;;16.32;75.12
68476;BME280;55464;48.266;14.188;2023-05-21T01:40:22;97669.72;;;16.26;75.01
68476;BME280;55464;48.266;14.188;2023-05-21T01:42:50;97672.88;;;16.21;75.21
68476;BME280;55464;48.266;14.188;2023-05-21T01:45:16;97673.28;;;16.20;75.17
68476;BME280;55464;48.266;14.188;2023-05-21T01:47:46;97668.09;;;16.18;75.25
68476;BME280;55464;48.266;14.188;2023-05-21T01:50:13;97670.44;;;16.16;75.44
68476;BME280;55464;48.266;14.188;2023-05-21T01:52:38;97663.28;;;16.12;75.39
68476;BME280;55464;48.266;14.188;2023-05-21T01:55:12;97674.00;;;16.13;75.45
68476;BME280;55464;48.266;14.188;2023-05-21T01:57:37;97659.22;;;16.05;75.55
68476;BME280;55464;48.266;14.188;2023-05-21T02:00:03;97665.19;;;16.07;75.74
68476;BME280;55464;48.266;14.188;2023-05-21T02:02:29;97657.66;;;16.04;75.89
68476;BME280;55464;48.266;14.188;2023-05-21T02:04:55;97671.56;;;16.04;75.78
68476;BME280;55464;48.266;14.188;2023-05-21T02:07:20;97667.94;;;16.04;75.83
68476;BME280;55464;48.266;14.188;2023-05-21T02:09:46;97664.75;;;16.02;75.90
68476;BME280;55464;48.266;14.188;2023-05-21T02:12:12;97662.38;;;16.00;75.93
68476;BME280;55464;48.266;14.188;2023-05-21T02:14:37;97668.72;;;15.97;76.02
68476;BME280;55464;48.266;14.188;2023-05-21T02:17:03;97659.91;;;15.92;75.99
68476;BME280;55464;48.266;14.188;2023-05-21T02:19:28;97664.69;;;15.95;75.95
68476;BME280;55464;48.266;14.188;2023-05-21T02:21:54;97656.75;;;15.93;75.93
68476;BME280;55464;48.266;14.188;2023-05-21T02:24:19;97665.47;;;15.92;76.00
68476;BME280;55464;48.266;14.188;2023-05-21T02:26:46;97652.72;;;15.87;75.97
68476;BME280;55464;48.266;14.188;2023-05-21T02:29:12;97663.84;;;15.87;76.20
68476;BME280;55464;48.266;14.188;2023-05-21T02:31:38;97651.44;;;15.77;76.13
68476;BME280;55464;48.266;14.188;2023-05-21T02:34:03;97655.81;;;15.78;75.98
68476;BME280;55464;48.266;14.188;2023-05-21T02:36:28;97663.78;;;15.80;76.27
68476;BME280;55464;48.266;14.188;2023-05-21T02:38:57;97654.22;;;15.77;76.25
68476;BME280;55464;48.266;14.188;2023-05-21T02:41:22;97659.41;;;15.79;76.34
68476;BME280;55464;48.266;14.188;2023-05-21T02:43:48;97656.59;;;15.75;76.38
68476;BME280;55464;48.266;14.188;2023-05-21T02:46:13;97654.91;;;15.70;76.39
68476;BME280;55464;48.266;14.188;2023-05-21T02:48:38;97640.19;;;15.66;76.62
68476;BME280;55464;48.266;14.188;2023-05-21T02:51:04;97641.91;;;15.75;76.54
68476;BME280;55464;48.266;14.188;2023-05-21T02:53:29;97640.63;;;15.72;76.43
68476;BME280;55464;48.266;14.188;2023-05-21T02:55:55;97652.56;;;15.73;76.35
68476;BME280;55464;48.266;14.188;2023-05-21T02:58:20;97647.75;;;15.66;76.48
68476;BME280;55464;48.266;14.188;2023-05-21T03:00:47;97649.75;;;15.69;76.51
68476;BME280;55464;48.266;14.188;2023-05-21T03:03:13;97646.91;;;15.65;76.60
68476;BME280;55464;48.266;14.188;2023-05-21T03:05:38;97652.47;;;15.65;76.21
68476;BME280;55464;48.266;14.188;2023-05-21T03:08:04;97648.13;;;15.64;76.44
68476;BME280;55464;48.266;14.188;2023-05-21T03:10:29;97664.38;;;15.62;76.52
68476;BME280;55464;48.266;14.188;2023-05-21T03:12:54;97651.19;;;15.56;76.70
68476;BME280;55464;48.266;14.188;2023-05-21T03:15:20;97651.25;;;15.59;76.70
68476;BME280;55464;48.266;14.188;2023-05-21T03:17:48;97647.66;;;15.59;76.63
68476;BME280;55464;48.266;14.188;2023-05-21T03:20:14;97645.28;;;15.57;76.71
68476;BME280;55464;48.266;14.188;2023-05-21T03:22:43;97650.00;;;15.57;76.60
68476;BME280;55464;48.266;14.188;2023-05-21T03:25:12;97649.97;;;15.53;76.58
68476;BME280;55464;48.266;14.188;2023-05-21T03:27:38;97649.94;;;15.49;76.89
68476;BME280;55464;48.266;14.188;2023-05-21T03:30:04;97649.19;;;15.53;76.60
68476;BME280;55464;48.266;14.188;2023-05-21T03:32:30;97648.38;;;15.52;76.76
68476;BME280;55464;48.266;14.188;2023-05-21T03:34:58;97651.97;;;15.53;76.64
68476;BME280;55464;48.266;14.188;2023-05-21T03:37:23;97658.72;;;15.52;76.97
68476;BME280;55464;48.266;14.188;2023-05-21T03:39:49;97651.91;;;15.49;76.97
68476;BME280;55464;48.266;14.188;2023-05-21T03:42:15;97655.50;;;15.49;77.21
68476;BME280;55464;48.266;14.188;2023-05-21T03:44:40;97659.47;;;15.48;76.70
68476;BME280;55464;48.266;14.188;2023-05-21T03:47:05;97654.69;;;15.49;76.90
68476;BME280;55464;48.266;14.188;2023-05-21T03:49:31;97650.72;;;15.46;77.18
68476;BME280;55464;48.266;14.188;2023-05-21T03:51:56;97661.03;;;15.49;77.21
68476;BME280;55464;48.266;14.188;2023-05-21T03:54:21;97658.25;;;15.49;77.12
68476;BME280;55464;48.266;14.188;2023-05-21T03:56:47;97660.66;;;15.51;77.09
68476;BME280;55464;48.266;14.188;2023-05-21T03:59:12;97663.81;;;15.49;77.09
68476;BME280;55464;48.266;14.188;2023-05-21T04:01:38;97662.25;;;15.48;77.10
68476;BME280;55464;48.266;14.188;2023-05-21T04:04:03;97669.00;;;15.51;77.25
68476;BME280;55464;48.266;14.188;2023-05-21T04:06:29;97660.28;;;15.53;77.25
68476;BME280;55464;48.266;14.188;2023-05-21T04:08:54;97659.88;;;15.50;77.02
68476;BME280;55464;48.266;14.188;2023-05-21T04:11:20;97664.31;;;15.55;77.21
68476;BME280;55464;48.266;14.188;2023-05-21T04:13:45;97655.13;;;15.51;77.26
68476;BME280;55464;48.266;14.188;2023-05-21T04:16:12;97667.88;;;15.56;77.47
68476;BME280;55464;48.266;14.188;2023-05-21T04:18:39;97653.50;;;15.46;76.95
68476;BME280;55464;48.266;14.188;2023-05-21T04:21:05;97668.25;;;15.54;77.52
68476;BME280;55464;48.266;14.188;2023-05-21T04:23:31;97662.72;;;15.58;77.46
68476;BME280;55464;48.266;14.188;2023-05-21T04:25:57;97662.72;;;15.58;77.38
68476;BME280;55464;48.266;14.188;2023-05-21T04:28:23;97663.53;;;15.58;77.47
68476;BME280;55464;48.266;14.188;2023-05-21T04:30:48;97664.31;;;15.55;77.24
68476;BME280;55464;48.266;14.188;2023-05-21T04:33:14;97665.88;;;15.56;77.20
68476;BME280;55464;48.266;14.188;2023-05-21T04:35:42;97669.91;;;15.59;77.41
68476;BME280;55464;48.266;14.188;2023-05-21T04:38:08;97669.81;;;15.52;77.41
68476;BME280;55464;48.266;14.188;2023-05-21T04:40:34;97679.78;;;15.56;77.44
68476;BME280;55464;48.266;14.188;2023-05-21T04:42:59;97680.09;;;15.51;77.21
68476;BME280;55464;48.266;14.188;2023-05-21T04:45:26;97680.50;;;15.49;77.61
68476;BME280;55464;48.266;14.188;2023-05-21T04:47:51;97664.59;;;15.46;77.45
68476;BME280;55464;48.266;14.188;2023-05-21T04:50:17;97672.97;;;15.50;77.50
68476;BME280;55464;48.266;14.188;2023-05-21T04:52:43;97682.88;;;15.51;77.60
68476;BME280;55464;48.266;14.188;2023-05-21T04:55:09;97678.19;;;15.55;77.66
68476;BME280;55464;48.266;14.188;2023-05-21T04:57:35;97671.41;;;15.53;77.47
68476;BME280;55464;48.266;14.188;2023-05-21T05:00:01;97677.84;;;15.60;77.47
68476;BME280;55464;48.266;14.188;2023-05-21T05:02:27;97677.41;;;15.58;77.45
68476;BME280;55464;48.266;14.188;2023-05-21T05:04:52;97677.03;;;15.60;77.42
68476;BME280;55464;48.266;14.188;2023-05-21T05:07:18;97673.88;;;15.61;77.53
68476;BME280;55464;48.266;14.188;2023-05-21T05:09:43;97683.03;;;15.65;77.28
68476;BME280;55464;48.266;14.188;2023-05-21T05:12:09;97675.09;;;15.64;77.51
68476;BME280;55464;48.266;14.188;2023-05-21T05:14:34;97686.66;;;15.69;77.21
68476;BME280;55464;48.266;14.188;2023-05-21T05:17:00;97681.53;;;15.72;77.31
68476;BME280;55464;48.266;14.188;2023-05-21T05:19:25;97679.94;;;15.74;77.23
68476;BME280;55464;48.266;14.188;2023-05-21T05:21:51;97690.72;;;15.76;77.47
68476;BME280;55464;48.266;14.188;2023-05-21T05:24:16;97680.44;;;15.76;76.91
68476;BME280;55464;48.266;14.188;2023-05-21T05:26:42;97676.06;;;15.79;77.20
68476;BME280;55464;48.266;14.188;2023-05-21T05:29:07;97677.25;;;15.78;77.15
68476;BME280;55464;48.266;14.188;2023-05-21T05:31:33;97680.47;;;15.80;77.18
68476;BME280;55464;48.266;14.188;2023-05-21T05:33:58;97675.31;;;15.82;77.50
68476;BME280;55464;48.266;14.188;2023-05-21T05:36:23;97665.78;;;15.83;77.50
68476;BME280;55464;48.266;14.188;2023-05-21T05:38:49;97670.97;;;15.84;77.36
68476;BME280;55464;48.266;14.188;2023-05-21T05:41:14;97664.22;;;15.85;77.14
68476;BME280;55464;48.266;14.188;2023-05-21T05:43:39;97667.44;;;15.91;77.33
68476;BME280;55464;48.266;14.188;2023-05-21T05:46:05;97661.09;;;15.91;77.36
68476;BME280;55464;48.266;14.188;2023-05-21T05:48:30;97664.34;;;16.00;77.36
68476;BME280;55464;48.266;14.188;2023-05-21T05:50:56;97653.63;;;15.98;77.21
68476;BME280;55464;48.266;14.188;2023-05-21T05:53:21;97663.25;;;16.08;77.23
68476;BME280;55464;48.266;14.188;2023-05-21T05:55:46;97653.72;;;16.13;77.11
68476;BME280;55464;48.266;14.188;2023-05-21T05:58:12;97653.75;;;16.16;76.98
68476;BME280;55464;48.266;14.188;2023-05-21T06:00:37;97655.00;;;16.19;77.58
68476;BME280;55464;48.266;14.188;2023-05-21T06:03:03;97652.25;;;16.26;77.29
68476;BME280;55464;48.266;14.188;2023-05-21T06:05:28;97653.88;;;16.27;77.08
68476;BME280;55464;48.266;14.188;2023-05-21T06:07:54;97656.69;;;16.31;77.00
68476;BME280;55464;48.266;14.188;2023-05-21T06:10:19;97651.13;;;16.31;76.45
68476;BME280;55464;48.266;14.188;2023-05-21T06:12:45;97666.66;;;16.39;76.07
68476;BME280;55464;48.266;14.188;2023-05-21T06:15:10;97657.09;;;16.36;76.11
68476;BME280;55464;48.266;14.188;2023-05-21T06:17:36;97655.53;;;16.42;76.29
68476;BME280;55464;48.266;14.188;2023-05-21T06:20:02;97652.00;;;16.45;76.31
68476;BME280;55464;48.266;14.188;2023-05-21T06:22:28;97632.91;;;16.44;76.79
68476;BME280;55464;48.266;14.188;2023-05-21T06:24:53;97644.91;;;16.55;76.11
68476;BME280;55464;48.266;14.188;2023-05-21T06:27:19;97642.19;;;16.62;76.22
68476;BME280;55464;48.266;14.188;2023-05-21T06:29:44;97646.56;;;16.67;75.77
68476;BME280;55464;48.266;14.188;2023-05-21T06:32:10;97644.59;;;16.68;75.25
68476;BME280;55464;48.266;14.188;2023-05-21T06:34:35;97642.22;;;16.70;74.25
68476;BME280;55464;48.266;14.188;2023-05-21T06:37:00;97643.78;;;16.67;74.83
68476;BME280;55464;48.266;14.188;2023-05-21T06:39:26;97641.84;;;16.75;75.45
68476;BME280;55464;48.266;14.188;2023-05-21T06:41:51;97642.66;;;16.79;74.46
68476;BME280;55464;48.266;14.188;2023-05-21T06:44:17;97639.53;;;16.84;74.63
68476;BME280;55464;48.266;14.188;2023-05-21T06:46:43;97635.59;;;16.85;75.33
68476;BME280;55464;48.266;14.188;2023-05-21T06:49:10;97641.97;;;16.93;75.18
68476;BME280;55464;48.266;14.188;2023-05-21T06:51:36;97645.16;;;16.95;74.53
68476;BME280;55464;48.266;14.188;2023-05-21T06:54:02;97642.41;;;17.02;74.17
68476;BME280;55464;48.266;14.188;2023-05-21T06:56:27;97638.44;;;17.03;73.82
68476;BME280;55464;48.266;14.188;2023-05-21T06:58:53;97634.47;;;17.00;74.51
68476;BME280;55464;48.266;14.188;2023-05-21T07:01:18;97646.81;;;17.10;74.30
68476;BME280;55464;48.266;14.188;2023-05-21T07:03:44;97642.47;;;17.09;73.81
68476;BME280;55464;48.266;14.188;2023-05-21T07:06:09;97652.41;;;17.14;74.13
68476;BME280;55464;48.266;14.188;2023-05-21T07:08:34;97650.03;;;17.19;74.03
68476;BME280;55464;48.266;14.188;2023-05-21T07:11:00;97634.94;;;17.20;74.13
68476;BME280;55464;48.266;14.188;2023-05-21T07:13:25;97635.34;;;17.26;73.60
68476;BME280;55464;48.266;14.188;2023-05-21T07:15:51;97636.56;;;17.32;73.68
68476;BME280;55464;48.266;14.188;2023-05-21T07:18:17;97641.78;;;17.41;73.49
68476;BME280;55464;48.266;14.188;2023-05-21T07:20:43;97621.06;;;17.38;74.13
68476;BME280;55464;48.266;14.188;2023-05-21T07:23:08;97635.81;;;17.50;73.63
68476;BME280;55464;48.266;14.188;2023-05-21T07:25:33;97645.78;;;17.54;73.34
68476;BME280;55464;48.266;14.188;2023-05-21T07:27:59;97644.59;;;17.59;73.68
68476;BME280;55464;48.266;14.188;2023-05-21T07:30:25;97639.41;;;17.61;72.62
68476;BME280;55464;48.266;14.188;2023-05-21T07:32:50;97637.03;;;17.63;72.85
68476;BME280;55464;48.266;14.188;2023-05-21T07:35:15;97639.81;;;17.74;71.17
68476;BME280;55464;48.266;14.188;2023-05-21T07:37:41;97630.69;;;17.77;70.76
68476;BME280;55464;48.266;14.188;2023-05-21T07:40:07;97630.69;;;17.77;71.32
68476;BME280;55464;48.266;14.188;2023-05-21T07:42:32;97627.50;;;17.75;71.83
68476;BME280;55464;48.266;14.188;2023-05-21T07:44:58;97639.91;;;17.88;71.01
68476;BME280;55464;48.266;14.188;2023-05-21T07:47:23;97636.69;;;17.90;70.89
68476;BME280;55464;48.266;14.188;2023-05-21T07:49:49;97623.97;;;17.92;71.33
68476;BME280;55464;48.266;14.188;2023-05-21T07:52:14;97631.53;;;17.99;71.37
68476;BME280;55464;48.266;14.188;2023-05-21T07:54:40;97623.16;;;18.10;71.25
68476;BME280;55464;48.266;14.188;2023-05-21T07:57:05;97635.94;;;18.14;70.90
68476;BME280;55464;48.266;14.188;2023-05-21T07:59:31;97632.72;;;18.20;71.58
68476;BME280;55464;48.266;14.188;2023-05-21T08:01:57;97623.16;;;18.17;71.33
68476;BME280;55464;48.266;14.188;2023-05-21T08:04:23;97631.53;;;18.24;71.21
68476;BME280;55464;48.266;14.188;2023-05-21T08:06:48;97629.13;;;18.33;71.03
68476;BME280;55464;48.266;14.188;2023-05-21T08:09:13;97631.91;;;18.37;70.29
68476;BME280;55464;48.266;14.188;2023-05-21T08:11:39;97619.94;;;18.40;69.99
68476;BME280;55464;48.266;14.188;2023-05-21T08:14:04;97624.34;;;18.48;69.95
68476;BME280;55464;48.266;14.188;2023-05-21T08:16:30;97627.91;;;18.52;69.28
68476;BME280;55464;48.266;14.188;2023-05-21T08:18:55;97625.50;;;18.55;69.84
68476;BME280;55464;48.266;14.188;2023-05-21T08:21:21;97623.91;;;18.57;69.66
68476;BME280;55464;48.266;14.188;2023-05-21T08:23:46;97619.91;;;18.65;70.54
68476;BME280;55464;48.266;14.188;2023-05-21T08:26:12;97626.28;;;18.73;69.79
68476;BME280;55464;48.266;14.188;2023-05-21T08:28:40;97624.28;;;18.74;68.83
68476;BME280;55464;48.266;14.188;2023-05-21T08:31:06;97620.28;;;18.78;68.19
68476;BME280;55464;48.266;14.188;2023-05-21T08:33:34;97623.06;;;18.85;69.08
68476;BME280;55464;48.266;14.188;2023-05-21T08:36:01;97625.47;;;18.87;69.14
68476;BME280;55464;48.266;14.188;2023-05-21T08:38:26;97607.09;;;18.86;68.90
68476;BME280;55464;48.266;14.188;2023-05-21T08:40:53;97609.88;;;18.93;68.33
68476;BME280;55464;48.266;14.188;2023-05-21T08:43:19;97605.47;;;19.03;68.36
68476;BME280;55464;48.266;14.188;2023-05-21T08:45:48;97611.00;;;19.14;67.71
68476;BME280;55464;48.266;14.188;2023-05-21T08:48:17;97606.19;;;19.14;68.60
68476;BME280;55464;48.266;14.188;2023-05-21T08:50:44;97608.16;;;19.21;66.57
68476;BME280;55464;48.266;14.188;2023-05-21T08:53:09;97612.13;;;19.31;66.27
68476;BME280;55464;48.266;14.188;2023-05-21T08:55:35;97613.28;;;19.37;68.00
68476;BME280;55464;48.266;14.188;2023-05-21T08:58:03;97599.69;;;19.35;67.78
68476;BME280;55464;48.266;14.188;2023-05-21T09:00:28;97608.00;;;19.53;67.56
68476;BME280;55464;48.266;14.188;2023-05-21T09:02:54;97607.59;;;19.51;66.79
68476;BME280;55464;48.266;14.188;2023-05-21T09:05:21;97600.84;;;19.45;66.09
68476;BME280;55464;48.266;14.188;2023-05-21T09:08:13;97602.41;;;19.53;66.78
68476;BME280;55464;48.266;14.188;2023-05-21T09:10:41;97597.59;;;19.57;65.83
68476;BME280;55464;48.266;14.188;2023-05-21T09:13:11;97602.28;;;19.71;66.30
68476;BME280;55464;48.266;14.188;2023-05-21T09:15:37;97607.47;;;19.73;65.44
68476;BME280;55464;48.266;14.188;2023-05-21T09:18:02;97607.47;;;19.76;66.39
68476;BME280;55464;48.266;14.188;2023-05-21T09:20:28;97605.81;;;19.82;66.47
68476;BME280;55464;48.266;14.188;2023-05-21T09:22:53;97616.94;;;19.90;65.93
68476;BME280;55464;48.266;14.188;2023-05-21T09:25:25;97604.13;;;19.96;64.03
68476;BME280;55464;48.266;14.188;2023-05-21T09:27:56;97610.88;;;19.98;63.84
68476;BME280;55464;48.266;14.188;2023-05-21T09:30:22;97601.34;;;19.96;65.53
68476;BME280;55464;48.266;14.188;2023-05-21T09:32:58;97612.84;;;20.05;64.03
68476;BME280;55464;48.266;14.188;2023-05-21T09:35:24;97600.03;;;20.08;63.75
68476;BME280;55464;48.266;14.188;2023-05-21T09:37:50;97593.56;;;20.18;64.31
68476;BME280;55464;48.266;14.188;2023-05-21T09:40:18;97604.31;;;20.23;63.84
68476;BME280;55464;48.266;14.188;2023-05-21T09:42:51;97617.03;;;20.28;63.99
68476;BME280;55464;48.266;14.188;2023-05-21T09:45:21;97605.44;;;20.29;63.56
68476;BME280;55464;48.266;14.188;2023-05-21T09:47:48;97598.66;;;20.30;63.10
68476;BME280;55464;48.266;14.188;2023-05-21T09:50:21;97608.16;;;20.36;62.87
68476;BME280;55464;48.266;14.188;2023-05-21T09:52:47;97600.94;;;20.43;61.13
68476;BME280;55464;48.266;14.188;2023-05-21T09:55:15;97606.13;;;20.44;61.00
68476;BME280;55464;48.266;14.188;2023-05-21T09:57:41;97603.22;;;20.55;60.73
68476;BME280;55464;48.266;14.188;2023-05-21T10:02:47;97605.88;;;20.69;60.80
68476;BME280;55464;48.266;14.188;2023-05-21T10:05:14;97605.91;;;20.66;61.28
68476;BME280;55464;48.266;14.188;2023-05-21T10:08:00;97603.50;;;20.68;60.88
68476;BME280;55464;48.266;14.188;2023-05-21T10:10:27;97593.13;;;20.65;61.91
68476;BME280;55464;48.266;14.188;2023-05-21T10:13:07;97595.06;;;20.71;61.60
68476;BME280;55464;48.266;14.188;2023-05-21T10:15:47;97601.44;;;20.72;62.14
68476;BME280;55464;48.266;14.188;2023-05-21T10:18:14;97604.56;;;20.81;60.17
68476;BME280;55464;48.266;14.188;2023-05-21T10:20:43;97579.72;;;20.83;58.68
68476;BME280;55464;48.266;14.188;2023-05-21T10:23:10;97600.47;;;20.86;58.16
68476;BME280;55464;48.266;14.188;2023-05-21T10:25:37;97586.03;;;20.91;57.36
68476;BME280;55464;48.266;14.188;2023-05-21T10:28:03;97589.16;;;20.96;58.03
68476;BME280;55464;48.266;14.188;2023-05-21T10:30:31;97576.75;;;20.98;56.31
68476;BME280;55464;48.266;14.188;2023-05-21T10:32:57;97590.38;;;20.95;56.54
68476;BME280;55464;48.266;14.188;2023-05-21T10:35:24;97586.28;;;21.04;56.15
68476;BME280;55464;48.266;14.188;2023-05-21T10:37:50;97577.88;;;21.04;56.12
68476;BME280;55464;48.266;14.188;2023-05-21T10:40:17;97575.06;;;21.04;58.70
68476;BME280;55464;48.266;14.188;2023-05-21T10:46:08;97577.31;;;21.16;56.35
68476;BME280;55464;48.266;14.188;2023-05-21T10:51:37;97573.44;;;21.33;57.06
68476;BME280;55464;48.266;14.188;2023-05-21T10:54:19;97571.03;;;21.36;56.96
68476;BME280;55464;48.266;14.188;2023-05-21T10:59:42;97558.69;;;21.29;57.74
68476;BME280;55464;48.266;14.188;2023-05-21T11:02:12;97556.91;;;21.43;57.42
68476;BME280;55464;48.266;14.188;2023-05-21T11:04:39;97545.69;;;21.46;57.36
68476;BME280;55464;48.266;14.188;2023-05-21T11:07:06;97557.72;;;21.43;57.49
68476;BME280;55464;48.266;14.188;2023-05-21T11:09:32;97545.69;;;21.46;57.48
68476;BME280;55464;48.266;14.188;2023-05-21T11:11:58;97565.16;;;21.57;57.68
68476;BME280;55464;48.266;14.188;2023-05-21T11:14:38;97551.13;;;21.57;58.61
68476;BME280;55464;48.266;14.188;2023-05-21T11:17:17;97548.25;;;21.61;58.50
68476;BME280;55464;48.266;14.188;2023-05-21T11:20:03;97554.94;;;21.70;56.05
68476;BME280;55464;48.266;14.188;2023-05-21T11:22:34;97542.47;;;21.71;55.81
68476;BME280;55464;48.266;14.188;2023-05-21T11:25:00;97540.84;;;21.74;54.44
68476;BME280;55464;48.266;14.188;2023-05-21T11:27:33;97548.78;;;21.79;54.25
68476;BME280;55464;48.266;14.188;2023-05-21T11:30:03;97548.72;;;21.83;55.01
68476;BME280;55464;48.266;14.188;2023-05-21T11:32:29;97550.78;;;21.79;55.56
68476;BME280;55464;48.266;14.188;2023-05-21T11:34:58;97552.38;;;21.80;55.25
68476;BME280;55464;48.266;14.188;2023-05-21T11:37:26;97547.00;;;21.89;54.11
68476;BME280;55464;48.266;14.188;2023-05-21T11:39:53;97541.28;;;21.96;52.77
68476;BME280;55464;48.266;14.188;2023-05-21T11:42:32;97532.91;;;21.93;53.15
68476;BME280;55464;48.266;14.188;2023-05-21T11:45:00;97545.19;;;22.02;53.78
68476;BME280;55464;48.266;14.188;2023-05-21T11:47:27;97536.34;;;22.04;53.30
68476;BME280;55464;48.266;14.188;2023-05-21T11:49:53;97535.34;;;22.14;52.06
68476;BME280;55464;48.266;14.188;2023-05-21T11:52:18;97537.38;;;22.14;51.92
68476;BME280;55464;48.266;14.188;2023-05-21T11:54:46;97532.91;;;22.16;53.19
68476;BME280;55464;48.266;14.188;2023-05-21T11:57:16;97533.56;;;22.24;52.70
68476;BME280;55464;48.266;14.188;2023-05-21T11:59:45;97538.03;;;22.21;52.48
68476;BME280;55464;48.266;14.188;2023-05-21T12:02:15;97528.28;;;22.30;52.75
68476;BME280;55464;48.266;14.188;2023-05-21T12:04:41;97523.00;;;22.35;53.30
68476;BME280;55464;48.266;14.188;2023-05-21T12:07:09;97534.06;;;22.42;53.59
68476;BME280;55464;48.266;14.188;2023-05-21T12:09:53;97531.91;;;22.50;54.91
68476;BME280;55464;48.266;14.188;2023-05-21T12:12:25;97529.03;;;22.54;54.03
68476;BME280;55464;48.266;14.188;2023-05-21T12:14:52;97535.69;;;22.63;53.25
68476;BME280;55464;48.266;14.188;2023-05-21T12:17:19;97530.06;;;22.63;54.09
68476;BME280;55464;48.266;14.188;2023-05-21T12:19:46;97532.66;;;22.74;51.97
68476;BME280;55464;48.266;14.188;2023-05-21T12:22:12;97528.91;;;22.81;50.65
68476;BME280;55464;48.266;14.188;2023-05-21T12:24:39;97534.16;;;22.79;52.50
68476;BME280;55464;48.266;14.188;2023-05-21T12:27:06;97526.88;;;22.81;52.01
68476;BME280;55464;48.266;14.188;2023-05-21T12:29:35;97520.31;;;22.88;50.15
68476;BME280;55464;48.266;14.188;2023-05-21T12:32:03;97531.69;;;23.01;52.61
68476;BME280;55464;48.266;14.188;2023-05-21T12:34:40;97531.06;;;23.13;51.88
68476;BME280;55464;48.266;14.188;2023-05-21T12:37:20;97525.78;;;23.15;51.85
68476;BME280;55464;48.266;14.188;2023-05-21T12:39:47;97516.84;;;23.20;52.40
68476;BME280;55464;48.266;14.188;2023-05-21T12:42:13;97524.41;;;23.24;52.58
68476;BME280;55464;48.266;14.188;2023-05-21T12:44:44;97525.03;;;23.31;52.42
68476;BME280;55464;48.266;14.188;2023-05-21T12:47:11;97523.38;;;23.34;52.63
68476;BME280;55464;48.266;14.188;2023-05-21T12:49:39;97522.13;;;23.35;51.96
68476;BME280;55464;48.266;14.188;2023-05-21T12:52:10;97526.53;;;23.36;52.19
68476;BME280;55464;48.266;14.188;2023-05-21T12:54:37;97530.13;;;23.36;52.40
68476;BME280;55464;48.266;14.188;2023-05-21T12:59:54;97535.06;;;23.49;51.85
68476;BME280;55464;48.266;14.188;2023-05-21T13:02:31;97533.50;;;23.48;52.16
68476;BME280;55464;48.266;14.188;2023-05-21T13:05:01;97534.97;;;23.36;51.92